createdAt,value
2023-03-26T00:01:23.992Z,9.51
2023-03-26T00:03:50.316Z,9.88
2023-03-26T00:06:16.617Z,9.91
2023-03-26T00:08:42.921Z,9.98
2023-03-26T00:11:09.250Z,9.99
2023-03-26T00:13:35.549Z,10.06
2023-03-26T00:16:01.872Z,10.08
2023-03-26T00:18:28.315Z,10.03
2023-03-26T00:20:54.606Z,9.65
2023-03-26T00:23:20.904Z,8.94
2023-03-26T00:25:49.151Z,9.26
2023-03-26T00:28:15.812Z,9.37
2023-03-26T00:30:42.171Z,9.48
2023-03-26T00:33:08.595Z,9.24
2023-03-26T00:35:34.957Z,9.31
2023-03-26T00:38:01.287Z,9.38
2023-03-26T00:40:27.624Z,9.29
2023-03-26T00:42:53.912Z,9.33
2023-03-26T00:45:20.217Z,9.41
2023-03-26T00:47:46.553Z,9.27
2023-03-26T00:50:12.898Z,9.38
2023-03-26T00:52:39.219Z,9.36
2023-03-26T00:55:05.546Z,9.32
2023-03-26T00:57:35.743Z,9.13
2023-03-26T01:00:02.591Z,9.21
2023-03-26T01:02:28.988Z,9.22
2023-03-26T01:04:55.328Z,9.32
2023-03-26T01:07:21.665Z,9.43
2023-03-26T01:09:47.970Z,9.40
2023-03-26T01:12:14.267Z,9.53
2023-03-26T01:14:40.582Z,9.21
2023-03-26T01:17:07.016Z,9.40
2023-03-26T01:19:33.435Z,9.47
2023-03-26T01:21:59.729Z,9.55
2023-03-26T01:24:26.095Z,9.73
2023-03-26T01:26:52.390Z,9.60
2023-03-26T01:29:18.680Z,9.87
2023-03-26T01:31:44.999Z,9.92
2023-03-26T01:34:11.293Z,9.86
2023-03-26T01:36:37.586Z,9.97
2023-03-26T01:39:03.913Z,9.61
2023-03-26T01:41:30.207Z,9.84
2023-03-26T01:43:56.527Z,9.74
2023-03-26T01:46:22.906Z,9.78
2023-03-26T01:48:49.210Z,9.52
2023-03-26T01:51:15.511Z,9.42
2023-03-26T01:53:41.822Z,9.53
2023-03-26T01:56:08.118Z,9.18
2023-03-26T01:58:34.426Z,9.23
2023-03-26T02:01:00.763Z,9.34
2023-03-26T02:03:27.200Z,9.14
2023-03-26T02:05:53.816Z,9.31
2023-03-26T02:08:20.356Z,9.50
2023-03-26T02:10:46.675Z,9.65
2023-03-26T02:13:12.969Z,9.40
2023-03-26T02:15:39.275Z,9.46
2023-03-26T02:18:05.580Z,8.97
2023-03-26T02:20:31.930Z,8.88
2023-03-26T02:22:58.252Z,9.13
2023-03-26T02:25:24.588Z,9.10
2023-03-26T02:27:50.909Z,9.38
2023-03-26T02:30:17.273Z,9.35
2023-03-26T02:32:43.605Z,9.07
2023-03-26T02:35:10.016Z,9.15
2023-03-26T02:37:36.512Z,9.14
2023-03-26T02:40:02.815Z,9.29
2023-03-26T02:42:29.115Z,9.19
2023-03-26T02:44:55.442Z,9.21
2023-03-26T02:47:21.741Z,9.08
2023-03-26T02:49:48.046Z,9.27
2023-03-26T02:52:14.354Z,9.24
2023-03-26T02:54:40.645Z,9.35
2023-03-26T02:57:06.994Z,9.38
2023-03-26T02:59:33.312Z,9.37
2023-03-26T03:01:59.643Z,9.37
2023-03-26T03:04:25.979Z,9.50
2023-03-26T03:06:52.293Z,9.50
2023-03-26T03:09:18.586Z,9.57
2023-03-26T03:11:44.896Z,9.56
2023-03-26T03:14:11.207Z,9.58
2023-03-26T03:16:38.662Z,9.62
2023-03-26T03:19:05.004Z,9.54
2023-03-26T03:21:31.311Z,9.65
2023-03-26T03:24:00.156Z,9.59
2023-03-26T03:26:26.835Z,9.62
2023-03-26T03:28:53.150Z,9.70
2023-03-26T03:31:19.511Z,9.71
2023-03-26T03:33:45.858Z,9.54
2023-03-26T03:36:20.733Z,9.36
2023-03-26T03:38:48.065Z,9.35
2023-03-26T03:41:14.403Z,9.39
2023-03-26T03:43:40.699Z,9.39
2023-03-26T03:46:07.039Z,9.45
2023-03-26T03:48:33.394Z,9.44
2023-03-26T03:50:59.694Z,9.50
2023-03-26T03:53:26.065Z,9.53
2023-03-26T03:55:52.551Z,9.56
2023-03-26T03:58:19.052Z,9.51
2023-03-26T04:00:45.347Z,9.27
2023-03-26T04:03:11.764Z,9.29
2023-03-26T04:05:38.106Z,9.34
2023-03-26T04:08:04.423Z,9.42
2023-03-26T04:10:30.748Z,9.35
2023-03-26T04:12:57.059Z,9.49
2023-03-26T04:15:23.387Z,9.50
2023-03-26T04:17:49.725Z,9.55
2023-03-26T04:20:16.171Z,9.54
2023-03-26T04:22:42.523Z,9.56
2023-03-26T04:25:08.842Z,9.59
2023-03-26T04:27:35.143Z,9.55
2023-03-26T04:30:01.440Z,9.50
2023-03-26T04:32:27.785Z,9.58
2023-03-26T04:34:54.105Z,9.52
2023-03-26T04:37:20.412Z,9.58
2023-03-26T04:39:46.754Z,9.62
2023-03-26T04:42:13.039Z,9.55
2023-03-26T04:44:39.328Z,9.62
2023-03-26T04:47:05.656Z,9.60
2023-03-26T04:49:31.958Z,9.52
2023-03-26T04:51:58.258Z,9.62
2023-03-26T04:54:24.592Z,9.58
2023-03-26T04:56:50.903Z,9.60
2023-03-26T04:59:17.215Z,9.46
2023-03-26T05:01:43.576Z,9.30
2023-03-26T05:04:09.908Z,9.14
2023-03-26T05:06:36.228Z,9.26
2023-03-26T05:09:02.532Z,9.24
2023-03-26T05:11:28.830Z,9.33
2023-03-26T05:13:55.130Z,9.19
2023-03-26T05:16:21.486Z,9.11
2023-03-26T05:18:47.842Z,9.11
2023-03-26T05:21:14.128Z,9.15
2023-03-26T05:23:40.476Z,8.95
2023-03-26T05:26:06.828Z,8.95
2023-03-26T05:28:33.132Z,8.90
2023-03-26T05:30:59.450Z,8.81
2023-03-26T05:33:25.875Z,8.75
2023-03-26T05:35:52.277Z,8.77
2023-03-26T05:38:18.706Z,8.70
2023-03-26T05:40:45.002Z,9.28
2023-03-26T05:43:11.299Z,8.91
2023-03-26T05:45:37.646Z,9.00
2023-03-26T05:48:03.994Z,8.92
2023-03-26T05:50:30.337Z,8.89
2023-03-26T05:52:56.650Z,8.84
2023-03-26T05:55:22.975Z,8.87
2023-03-26T05:57:49.268Z,8.79
2023-03-26T06:00:15.593Z,8.99
2023-03-26T06:02:41.904Z,8.77
2023-03-26T06:05:08.217Z,8.75
2023-03-26T06:07:34.539Z,8.64
2023-03-26T06:10:00.832Z,8.69
2023-03-26T06:12:27.141Z,8.59
2023-03-26T06:14:53.454Z,8.46
2023-03-26T06:17:19.746Z,8.54
2023-03-26T06:19:46.062Z,8.60
2023-03-26T06:22:12.416Z,8.58
2023-03-26T06:24:38.782Z,8.58
2023-03-26T06:27:05.088Z,8.57
2023-03-26T06:29:31.400Z,8.69
2023-03-26T06:32:06.162Z,8.66
2023-03-26T06:34:38.956Z,8.87
2023-03-26T06:37:05.254Z,8.80
2023-03-26T06:39:31.551Z,8.82
2023-03-26T06:41:57.884Z,8.90
2023-03-26T06:44:24.188Z,8.86
2023-03-26T06:46:50.560Z,8.86
2023-03-26T06:49:16.943Z,8.82
2023-03-26T06:51:43.243Z,8.96
2023-03-26T06:54:09.544Z,8.99
2023-03-26T06:56:35.924Z,8.94
2023-03-26T06:59:02.259Z,8.90
2023-03-26T07:01:28.691Z,8.97
2023-03-26T07:03:55.033Z,9.04
2023-03-26T07:06:26.224Z,8.89
2023-03-26T07:08:52.601Z,8.94
2023-03-26T07:11:18.925Z,8.99
2023-03-26T07:13:45.217Z,8.87
2023-03-26T07:16:11.533Z,8.81
2023-03-26T07:18:37.900Z,8.94
2023-03-26T07:21:04.210Z,8.99
2023-03-26T07:23:30.508Z,8.95
2023-03-26T07:25:56.884Z,8.93
2023-03-26T07:28:23.209Z,8.93
2023-03-26T07:30:49.503Z,9.00
2023-03-26T07:33:15.899Z,9.03
2023-03-26T07:35:42.207Z,9.01
2023-03-26T07:38:08.505Z,9.10
2023-03-26T07:40:34.824Z,9.17
2023-03-26T07:43:01.112Z,9.34
2023-03-26T07:45:27.419Z,9.39
2023-03-26T07:47:53.829Z,9.46
2023-03-26T07:50:20.240Z,9.39
2023-03-26T07:52:46.541Z,9.23
2023-03-26T07:55:12.900Z,9.17
2023-03-26T07:57:39.249Z,9.21
2023-03-26T08:00:05.589Z,9.18
2023-03-26T08:02:31.961Z,9.09
2023-03-26T08:04:58.403Z,9.05
2023-03-26T08:07:24.784Z,9.09
2023-03-26T08:09:51.096Z,9.11
2023-03-26T08:12:17.406Z,9.16
2023-03-26T08:14:43.707Z,9.19
2023-03-26T08:17:10.043Z,9.03
2023-03-26T08:19:36.350Z,9.06
2023-03-26T08:22:02.640Z,9.11
2023-03-26T08:24:28.974Z,9.03
2023-03-26T08:26:55.290Z,9.05
2023-03-26T08:29:21.628Z,9.18
2023-03-26T08:31:47.992Z,9.32
2023-03-26T08:34:14.292Z,9.31
2023-03-26T08:36:40.599Z,9.61
2023-03-26T08:39:06.949Z,9.66
2023-03-26T08:41:33.251Z,9.67
2023-03-26T08:43:59.545Z,9.93
2023-03-26T08:46:25.920Z,9.93
2023-03-26T08:48:52.240Z,9.81
2023-03-26T08:51:18.538Z,9.84
2023-03-26T08:53:44.861Z,9.63
2023-03-26T08:56:11.159Z,9.77
2023-03-26T08:58:37.585Z,9.82
2023-03-26T09:01:03.945Z,9.86
2023-03-26T09:03:30.253Z,9.90
2023-03-26T09:05:56.562Z,9.87
2023-03-26T09:08:22.882Z,9.79
2023-03-26T09:10:49.190Z,9.85
2023-03-26T09:13:15.482Z,9.82
2023-03-26T09:15:41.820Z,9.85
2023-03-26T09:18:08.133Z,9.67
2023-03-26T09:20:34.509Z,9.65
2023-03-26T09:23:00.834Z,9.74
2023-03-26T09:25:27.176Z,9.84
2023-03-26T09:27:53.474Z,9.76
2023-03-26T09:30:19.791Z,9.77
2023-03-26T09:32:46.096Z,9.86
2023-03-26T09:35:13.423Z,10.01
2023-03-26T09:37:57.388Z,10.00
2023-03-26T09:40:24.734Z,10.47
2023-03-26T09:42:51.065Z,10.52
2023-03-26T09:45:17.365Z,10.53
2023-03-26T09:47:43.745Z,10.82
2023-03-26T09:50:10.102Z,10.67
2023-03-26T09:52:36.408Z,10.71
2023-03-26T09:55:02.721Z,10.66
2023-03-26T09:57:29.183Z,10.61
2023-03-26T09:59:55.514Z,10.65
2023-03-26T10:02:21.807Z,10.84
2023-03-26T10:05:08.172Z,11.14
2023-03-26T10:07:34.478Z,11.18
2023-03-26T10:10:00.775Z,10.99
2023-03-26T10:12:27.103Z,11.54
2023-03-26T10:14:53.406Z,11.55
2023-03-26T10:17:19.843Z,11.53
2023-03-26T10:19:46.198Z,11.47
2023-03-26T10:22:12.491Z,11.50
2023-03-26T10:24:38.802Z,11.51
2023-03-26T10:27:09.113Z,11.55
2023-03-26T10:29:37.006Z,11.57
2023-03-26T10:32:03.305Z,11.61
2023-03-26T10:34:29.803Z,11.73
2023-03-26T10:36:56.237Z,11.69
2023-03-26T10:39:36.511Z,11.67
2023-03-26T10:42:05.703Z,11.60
2023-03-26T10:44:32.024Z,11.80
2023-03-26T10:46:58.362Z,11.48
2023-03-26T10:49:24.710Z,11.28
2023-03-26T10:51:51.009Z,11.32
2023-03-26T10:54:17.315Z,12.12
2023-03-26T10:56:43.680Z,11.84
2023-03-26T10:59:10.024Z,11.60
2023-03-26T11:01:36.353Z,11.36
2023-03-26T11:04:02.711Z,11.40
2023-03-26T11:06:29.005Z,11.94
2023-03-26T11:08:55.430Z,12.02
2023-03-26T11:11:21.792Z,11.63
2023-03-26T11:13:48.087Z,11.71
2023-03-26T11:16:14.460Z,11.98
2023-03-26T11:18:40.820Z,12.68
2023-03-26T11:21:19.302Z,12.96
2023-03-26T11:23:46.736Z,12.67
2023-03-26T11:26:13.064Z,12.26
2023-03-26T11:28:39.451Z,12.05
2023-03-26T11:31:05.806Z,12.26
2023-03-26T11:33:32.778Z,12.36
2023-03-26T11:35:59.311Z,12.34
2023-03-26T11:38:25.669Z,12.40
2023-03-26T11:40:52.016Z,12.25
2023-03-26T11:43:18.343Z,12.50
2023-03-26T11:45:44.677Z,12.46
2023-03-26T11:48:10.961Z,12.14
2023-03-26T11:50:37.255Z,11.96
2023-03-26T11:53:03.571Z,12.08
2023-03-26T11:55:29.869Z,12.22
2023-03-26T11:57:56.170Z,11.96
2023-03-26T12:00:22.505Z,12.07
2023-03-26T12:02:48.822Z,11.97
2023-03-26T12:05:15.142Z,12.32
2023-03-26T12:07:41.510Z,12.40
2023-03-26T12:10:18.117Z,12.75
2023-03-26T12:12:45.452Z,12.64
2023-03-26T12:15:11.743Z,12.96
2023-03-26T12:17:38.063Z,12.93
2023-03-26T12:20:04.389Z,12.24
2023-03-26T12:22:30.699Z,12.00
2023-03-26T12:24:56.983Z,12.22
2023-03-26T12:27:23.285Z,11.94
2023-03-26T12:29:49.581Z,11.78
2023-03-26T12:32:15.882Z,11.09
2023-03-26T12:34:42.200Z,11.07
2023-03-26T12:37:08.506Z,10.82
2023-03-26T12:40:10.275Z,10.94
2023-03-26T12:44:43.345Z,10.80
2023-03-26T12:45:07.335Z,10.58
2023-03-26T12:47:57.212Z,10.63
2023-03-26T12:50:34.154Z,10.69
2023-03-26T12:53:01.784Z,10.54
2023-03-26T12:55:28.097Z,10.28
2023-03-26T12:57:54.398Z,9.77
2023-03-26T13:00:20.719Z,9.58
2023-03-26T13:02:47.124Z,9.20
2023-03-26T13:05:13.512Z,9.41
2023-03-26T13:07:39.831Z,9.52
2023-03-26T13:10:06.128Z,9.92
2023-03-26T13:12:32.414Z,9.91
2023-03-26T13:14:58.862Z,9.82
2023-03-26T13:17:25.196Z,9.97
2023-03-26T13:19:51.534Z,9.74
2023-03-26T13:22:17.834Z,9.60
2023-03-26T13:24:44.308Z,9.93
2023-03-26T13:27:10.602Z,10.03
2023-03-26T13:29:36.934Z,10.21
2023-03-26T13:32:03.233Z,10.36
2023-03-26T13:34:29.725Z,10.40
2023-03-26T13:36:56.073Z,10.24
2023-03-26T13:39:22.376Z,10.27
2023-03-26T13:41:48.661Z,10.35
2023-03-26T13:44:14.970Z,10.24
2023-03-26T13:46:41.299Z,10.02
2023-03-26T13:49:07.632Z,10.08
2023-03-26T13:51:33.951Z,10.21
2023-03-26T13:54:00.248Z,9.99
2023-03-26T13:56:26.565Z,9.91
2023-03-26T13:58:53.149Z,10.10
2023-03-26T14:01:19.510Z,10.00
2023-03-26T14:03:45.925Z,10.14
2023-03-26T14:06:12.356Z,9.97
2023-03-26T14:08:38.670Z,10.10
2023-03-26T14:11:04.964Z,10.18
2023-03-26T14:13:31.300Z,10.02
2023-03-26T14:15:57.778Z,9.79
2023-03-26T14:18:24.198Z,10.19
2023-03-26T14:20:50.548Z,10.24
2023-03-26T14:23:16.847Z,10.22
2023-03-26T14:25:43.146Z,10.23
2023-03-26T14:28:09.470Z,10.01
2023-03-26T14:30:35.780Z,10.16
2023-03-26T14:33:02.138Z,10.18
2023-03-26T14:35:28.497Z,10.24
2023-03-26T14:37:54.806Z,10.55
2023-03-26T14:40:21.150Z,10.60
2023-03-26T14:42:47.473Z,10.45
2023-03-26T14:45:13.764Z,10.64
2023-03-26T14:47:40.306Z,10.82
2023-03-26T14:50:06.687Z,10.70
2023-03-26T14:52:32.976Z,10.90
2023-03-26T14:55:02.125Z,11.01
2023-03-26T14:57:28.448Z,10.84
2023-03-26T14:59:54.745Z,10.99
2023-03-26T15:02:21.212Z,10.88
2023-03-26T15:04:47.594Z,10.71
2023-03-26T15:07:13.876Z,10.77
2023-03-26T15:09:40.155Z,10.61
2023-03-26T15:12:12.673Z,10.57
2023-03-26T15:14:39.638Z,10.15
2023-03-26T15:17:05.938Z,10.13
2023-03-26T15:19:32.236Z,10.25
2023-03-26T15:21:58.523Z,10.16
2023-03-26T15:24:24.871Z,10.13
2023-03-26T15:26:51.168Z,10.19
2023-03-26T15:29:17.472Z,10.14
2023-03-26T15:31:43.834Z,10.24
2023-03-26T15:34:10.126Z,10.38
2023-03-26T15:36:36.411Z,10.43
2023-03-26T15:39:02.707Z,10.51
2023-03-26T15:41:29.000Z,10.49
2023-03-26T15:44:24.615Z,10.41
2023-03-26T15:46:41.710Z,10.52
2023-03-26T15:49:07.998Z,10.45
2023-03-26T15:51:47.105Z,10.43
2023-03-26T15:54:14.171Z,10.59
2023-03-26T15:56:40.558Z,10.32
2023-03-26T15:59:06.895Z,10.60
2023-03-26T16:01:33.293Z,10.38
2023-03-26T16:03:59.626Z,10.21
2023-03-26T16:06:25.918Z,10.33
2023-03-26T16:08:52.291Z,10.44
2023-03-26T16:11:18.581Z,10.39
2023-03-26T16:13:44.911Z,10.40
2023-03-26T16:16:11.267Z,10.39
2023-03-26T16:18:37.604Z,10.15
2023-03-26T16:21:03.906Z,10.13
2023-03-26T16:23:30.213Z,10.28
2023-03-26T16:25:56.508Z,10.34
2023-03-26T16:28:22.811Z,10.31
2023-03-26T16:30:49.420Z,10.55
2023-03-26T16:33:16.032Z,10.47
2023-03-26T16:35:42.426Z,10.35
2023-03-26T16:38:08.748Z,10.23
2023-03-26T16:40:35.044Z,10.16
2023-03-26T16:43:01.338Z,10.20
2023-03-26T16:45:27.652Z,10.06
2023-03-26T16:47:54.015Z,9.90
2023-03-26T16:50:20.329Z,9.91
2023-03-26T16:52:46.653Z,9.87
2023-03-26T16:55:12.987Z,9.78
2023-03-26T16:57:39.274Z,9.70
2023-03-26T17:00:07.406Z,9.70
2023-03-26T17:02:34.063Z,9.79
2023-03-26T17:05:00.402Z,9.76
2023-03-26T17:07:26.702Z,9.72
2023-03-26T17:09:52.998Z,9.80
2023-03-26T17:12:19.297Z,9.75
2023-03-26T17:14:45.605Z,9.83
2023-03-26T17:17:11.885Z,9.82
2023-03-26T17:19:38.178Z,9.80
2023-03-26T17:22:04.495Z,9.84
2023-03-26T17:24:30.786Z,9.64
2023-03-26T17:26:57.083Z,9.66
2023-03-26T17:29:23.409Z,9.67
2023-03-26T17:31:49.758Z,9.87
2023-03-26T17:34:16.064Z,9.81
2023-03-26T17:36:42.404Z,9.72
2023-03-26T17:39:08.709Z,9.70
2023-03-26T17:41:35.163Z,9.64
2023-03-26T17:44:01.490Z,9.17
2023-03-26T17:46:27.803Z,9.43
2023-03-26T17:48:54.098Z,9.57
2023-03-26T17:51:20.404Z,9.48
2023-03-26T17:53:46.701Z,9.49
2023-03-26T17:56:13.005Z,9.65
2023-03-26T17:58:39.388Z,9.42
2023-03-26T18:01:05.727Z,9.52
2023-03-26T18:03:32.081Z,9.45
2023-03-26T18:05:58.509Z,9.30
2023-03-26T18:08:24.842Z,9.32
2023-03-26T18:10:51.122Z,9.46
2023-03-26T18:13:17.444Z,9.42
2023-03-26T18:15:45.038Z,9.50
2023-03-26T18:18:11.462Z,9.33
2023-03-26T18:20:37.776Z,9.26
2023-03-26T18:23:04.069Z,9.23
2023-03-26T18:25:30.371Z,9.26
2023-03-26T18:27:56.689Z,9.34
2023-03-26T18:30:22.972Z,9.39
2023-03-26T18:32:49.278Z,9.47
2023-03-26T18:35:15.636Z,9.43
2023-03-26T18:37:41.972Z,9.50
2023-03-26T18:40:08.258Z,9.39
2023-03-26T18:42:34.617Z,9.38
2023-03-26T18:45:02.165Z,9.38
2023-03-26T18:47:30.344Z,9.35
2023-03-26T18:49:56.694Z,8.84
2023-03-26T18:52:23.011Z,8.93
2023-03-26T18:54:49.301Z,8.78
2023-03-26T18:57:16.383Z,8.79
2023-03-26T18:59:42.938Z,8.47
2023-03-26T19:02:09.421Z,8.11
2023-03-26T19:04:35.759Z,8.01
2023-03-26T19:07:02.072Z,8.13
2023-03-26T19:09:32.049Z,8.19
2023-03-26T19:11:58.983Z,8.21
2023-03-26T19:14:25.267Z,7.86
2023-03-26T19:16:51.589Z,7.92
2023-03-26T19:19:17.901Z,7.80
2023-03-26T19:21:44.197Z,7.82
2023-03-26T19:24:10.504Z,7.71
2023-03-26T19:26:36.835Z,7.62
2023-03-26T19:29:03.126Z,7.73
2023-03-26T19:31:29.468Z,7.63
2023-03-26T19:33:55.779Z,7.59
2023-03-26T19:36:22.065Z,7.73
2023-03-26T19:38:48.367Z,7.59
2023-03-26T19:41:14.719Z,7.49
2023-03-26T19:43:41.011Z,7.59
2023-03-26T19:46:07.314Z,7.31
2023-03-26T19:48:45.896Z,7.42
2023-03-26T19:51:13.265Z,7.43
2023-03-26T19:53:39.587Z,7.60
2023-03-26T19:56:06.398Z,7.88
2023-03-26T19:58:32.795Z,7.77
2023-03-26T20:00:59.308Z,7.84
2023-03-26T20:03:25.900Z,7.91
2023-03-26T20:05:52.221Z,8.06
2023-03-26T20:08:18.539Z,8.10
2023-03-26T20:10:44.831Z,7.96
2023-03-26T20:13:11.141Z,7.77
2023-03-26T20:15:37.457Z,7.86
2023-03-26T20:18:03.762Z,7.92
2023-03-26T20:20:30.055Z,7.74
2023-03-26T20:22:56.360Z,7.74
2023-03-26T20:25:22.637Z,7.64
2023-03-26T20:27:48.950Z,7.92
2023-03-26T20:30:16.460Z,7.87
2023-03-26T20:32:45.736Z,7.66
2023-03-26T20:35:12.444Z,7.73
2023-03-26T20:37:38.852Z,7.98
2023-03-26T20:40:05.141Z,8.07
2023-03-26T20:42:31.427Z,8.21
2023-03-26T20:44:57.736Z,8.03
2023-03-26T20:47:24.063Z,7.95
2023-03-26T20:49:50.366Z,7.89
2023-03-26T20:52:16.704Z,7.96
2023-03-26T20:54:43.001Z,7.92
2023-03-26T20:57:09.304Z,7.79
2023-03-26T20:59:35.674Z,7.93
2023-03-26T21:02:02.103Z,7.68
2023-03-26T21:04:28.436Z,7.89
2023-03-26T21:06:57.845Z,8.03
2023-03-26T21:09:29.878Z,8.02
2023-03-26T21:11:56.191Z,8.23
2023-03-26T21:14:22.480Z,8.37
2023-03-26T21:16:48.856Z,8.42
2023-03-26T21:19:15.207Z,8.36
2023-03-26T21:21:41.495Z,8.03
2023-03-26T21:24:07.792Z,8.18
2023-03-26T21:26:34.102Z,8.07
2023-03-26T21:29:08.015Z,8.02
2023-03-26T21:31:34.375Z,8.14
2023-03-26T21:34:00.676Z,8.27
2023-03-26T21:36:26.990Z,8.04
2023-03-26T21:38:53.304Z,8.03
2023-03-26T21:41:19.634Z,7.98
2023-03-26T21:43:45.921Z,7.85
2023-03-26T21:46:12.250Z,7.81
2023-03-26T21:48:38.556Z,7.65
2023-03-26T21:51:04.859Z,8.14
2023-03-26T21:53:31.216Z,8.12
2023-03-26T21:55:57.517Z,7.92
2023-03-26T21:58:23.885Z,8.28
2023-03-26T22:00:50.373Z,7.88
2023-03-26T22:03:16.766Z,8.24
2023-03-26T22:05:43.176Z,8.00
2023-03-26T22:08:09.501Z,8.15
2023-03-26T22:10:35.828Z,8.17
2023-03-26T22:13:02.119Z,7.87
2023-03-26T22:15:28.427Z,7.74
2023-03-26T22:17:54.881Z,7.44
2023-03-26T22:20:21.334Z,7.54
2023-03-26T22:22:47.651Z,7.88
2023-03-26T22:25:13.948Z,7.63
2023-03-26T22:27:43.894Z,8.23
2023-03-26T22:30:10.851Z,7.87
2023-03-26T22:32:37.198Z,7.32
2023-03-26T22:35:03.490Z,7.58
2023-03-26T22:37:29.818Z,7.54
2023-03-26T22:39:56.118Z,7.71
2023-03-26T22:42:22.412Z,7.51
2023-03-26T22:44:48.717Z,7.43
2023-03-26T22:47:15.082Z,7.69
2023-03-26T22:49:41.366Z,7.58
2023-03-26T22:52:07.693Z,7.74
2023-03-26T22:54:33.991Z,7.61
2023-03-26T22:57:00.391Z,7.82
2023-03-26T22:59:26.752Z,7.66
2023-03-26T23:01:53.056Z,7.38
2023-03-26T23:04:31.628Z,7.51
2023-03-26T23:06:58.615Z,7.40
2023-03-26T23:09:24.914Z,7.49
2023-03-26T23:11:51.205Z,7.61
2023-03-26T23:14:17.520Z,7.23
2023-03-26T23:16:43.825Z,7.32
2023-03-26T23:19:10.119Z,6.99
2023-03-26T23:21:36.443Z,6.91
2023-03-26T23:24:02.734Z,7.29
2023-03-26T23:26:30.749Z,7.18
2023-03-26T23:28:59.049Z,7.38
2023-03-26T23:31:25.408Z,7.23
2023-03-26T23:33:51.775Z,7.24
2023-03-26T23:36:18.603Z,7.40
2023-03-26T23:38:45.166Z,7.35
2023-03-26T23:41:11.461Z,7.29
2023-03-26T23:43:37.785Z,7.21
2023-03-26T23:46:04.115Z,7.37
2023-03-26T23:48:30.439Z,7.37
2023-03-26T23:51:04.063Z,7.58
2023-03-26T23:53:30.888Z,7.28
2023-03-26T23:55:57.217Z,7.53
2023-03-26T23:58:23.513Z,7.11
